sensor_id;sensor_type;location;lat;lon;timestamp;temperature;humidity
41310;DHT22;27057;51.438;-0.010;2022-10-31T00:01:28;13.20;99.90
41310;DHT22;27057;51.438;-0.010;2022-10-31T00:03:55;13.20;99.90
41310;DHT22;27057;51.438;-0.010;2022-10-31T00:06:23;13.20;99.90
41310;DHT22;27057;51.438;-0.010;2022-10-31T00:08:59;13.30;99.90
41310;DHT22;27057;51.438;-0.010;2022-10-31T00:11:28;13.30;99.90
41310;DHT22;27057;51.438;-0.010;2022-10-31T00:13:59;13.30;99.90
41310;DHT22;27057;51.438;-0.010;2022-10-31T00:16:28;13.30;99.90
41310;DHT22;27057;51.438;-0.010;2022-10-31T00:19:01;13.30;99.90
41310;DHT22;27057;51.438;-0.010;2022-10-31T00:21:29;13.40;99.90
41310;DHT22;27057;51.438;-0.010;2022-10-31T00:23:58;13.40;99.90
41310;DHT22;27057;51.438;-0.010;2022-10-31T00:26:32;13.40;99.90
41310;DHT22;27057;51.438;-0.010;2022-10-31T00:29:00;13.40;99.90
41310;DHT22;27057;51.438;-0.010;2022-10-31T00:31:28;13.40;99.90
41310;DHT22;27057;51.438;-0.010;2022-10-31T00:33:56;13.30;99.90
41310;DHT22;27057;51.438;-0.010;2022-10-31T00:36:26;13.30;99.90
41310;DHT22;27057;51.438;-0.010;2022-10-31T00:38:53;13.30;99.90
41310;DHT22;27057;51.438;-0.010;2022-10-31T00:41:21;13.30;99.90
41310;DHT22;27057;51.438;-0.010;2022-10-31T00:43:48;13.30;99.90
41310;DHT22;27057;51.438;-0.010;2022-10-31T00:46:16;13.20;99.90
41310;DHT22;27057;51.438;-0.010;2022-10-31T00:48:44;13.20;99.90
41310;DHT22;27057;51.438;-0.010;2022-10-31T00:51:11;13.20;99.90
41310;DHT22;27057;51.438;-0.010;2022-10-31T00:53:40;13.20;99.90
41310;DHT22;27057;51.438;-0.010;2022-10-31T00:56:08;13.10;99.90
41310;DHT22;27057;51.438;-0.010;2022-10-31T00:58:35;13.10;99.90
41310;DHT22;27057;51.438;-0.010;2022-10-31T01:01:03;13.10;99.90
41310;DHT22;27057;51.438;-0.010;2022-10-31T01:03:32;13.10;99.90
41310;DHT22;27057;51.438;-0.010;2022-10-31T01:06:04;13.10;99.90
41310;DHT22;27057;51.438;-0.010;2022-10-31T01:08:33;13.10;99.90
41310;DHT22;27057;51.438;-0.010;2022-10-31T01:11:18;13.10;99.90
41310;DHT22;27057;51.438;-0.010;2022-10-31T01:13:47;13.20;99.90
41310;DHT22;27057;51.438;-0.010;2022-10-31T01:16:17;13.20;99.90
41310;DHT22;27057;51.438;-0.010;2022-10-31T01:18:45;13.20;99.90
41310;DHT22;27057;51.438;-0.010;2022-10-31T01:21:20;13.20;99.90
41310;DHT22;27057;51.438;-0.010;2022-10-31T01:23:49;13.10;99.90
41310;DHT22;27057;51.438;-0.010;2022-10-31T01:26:20;13.10;99.90
41310;DHT22;27057;51.438;-0.010;2022-10-31T01:28:50;13.10;99.90
41310;DHT22;27057;51.438;-0.010;2022-10-31T01:31:20;13.10;99.90
41310;DHT22;27057;51.438;-0.010;2022-10-31T01:33:48;13.10;99.90
41310;DHT22;27057;51.438;-0.010;2022-10-31T01:36:22;13.00;99.90
41310;DHT22;27057;51.438;-0.010;2022-10-31T01:38:52;13.00;99.90
41310;DHT22;27057;51.438;-0.010;2022-10-31T01:41:23;13.00;99.90
41310;DHT22;27057;51.438;-0.010;2022-10-31T01:43:54;13.00;99.90
41310;DHT22;27057;51.438;-0.010;2022-10-31T01:46:32;13.00;99.90
41310;DHT22;27057;51.438;-0.010;2022-10-31T01:49:08;12.90;99.90
41310;DHT22;27057;51.438;-0.010;2022-10-31T01:51:40;13.00;99.90
41310;DHT22;27057;51.438;-0.010;2022-10-31T01:54:12;13.00;99.90
41310;DHT22;27057;51.438;-0.010;2022-10-31T01:56:42;13.00;99.90
41310;DHT22;27057;51.438;-0.010;2022-10-31T01:59:14;13.00;99.90
41310;DHT22;27057;51.438;-0.010;2022-10-31T02:01:43;13.00;99.90
41310;DHT22;27057;51.438;-0.010;2022-10-31T02:04:11;13.00;99.90
41310;DHT22;27057;51.438;-0.010;2022-10-31T02:06:45;13.00;99.90
41310;DHT22;27057;51.438;-0.010;2022-10-31T02:09:14;13.00;99.90
41310;DHT22;27057;51.438;-0.010;2022-10-31T02:11:44;13.00;99.90
41310;DHT22;27057;51.438;-0.010;2022-10-31T02:14:12;13.00;99.90
41310;DHT22;27057;51.438;-0.010;2022-10-31T02:16:40;12.90;99.90
41310;DHT22;27057;51.438;-0.010;2022-10-31T02:19:09;12.90;99.90
41310;DHT22;27057;51.438;-0.010;2022-10-31T02:21:56;12.90;99.90
41310;DHT22;27057;51.438;-0.010;2022-10-31T02:30:14;12.80;99.90
41310;DHT22;27057;51.438;-0.010;2022-10-31T02:32:58;12.80;99.90
41310;DHT22;27057;51.438;-0.010;2022-10-31T02:35:41;12.80;99.90
41310;DHT22;27057;51.438;-0.010;2022-10-31T02:38:26;12.70;99.90
41310;DHT22;27057;51.438;-0.010;2022-10-31T02:41:32;12.70;99.90
41310;DHT22;27057;51.438;-0.010;2022-10-31T02:44:28;12.70;99.90
41310;DHT22;27057;51.438;-0.010;2022-10-31T02:47:19;12.70;99.90
41310;DHT22;27057;51.438;-0.010;2022-10-31T02:50:01;12.70;99.90
41310;DHT22;27057;51.438;-0.010;2022-10-31T02:52:32;12.70;99.90
41310;DHT22;27057;51.438;-0.010;2022-10-31T02:55:41;12.60;99.90
41310;DHT22;27057;51.438;-0.010;2022-10-31T02:58:07;12.60;99.90
41310;DHT22;27057;51.438;-0.010;2022-10-31T03:06:49;12.50;99.90
41310;DHT22;27057;51.438;-0.010;2022-10-31T03:12:11;12.60;99.90
41310;DHT22;27057;51.438;-0.010;2022-10-31T03:14:51;12.60;99.90
41310;DHT22;27057;51.438;-0.010;2022-10-31T03:17:26;12.60;99.90
41310;DHT22;27057;51.438;-0.010;2022-10-31T03:19:57;12.60;99.90
41310;DHT22;27057;51.438;-0.010;2022-10-31T03:22:28;12.70;99.90
41310;DHT22;27057;51.438;-0.010;2022-10-31T03:25:01;12.70;99.90
41310;DHT22;27057;51.438;-0.010;2022-10-31T03:27:33;12.70;99.90
41310;DHT22;27057;51.438;-0.010;2022-10-31T03:30:03;12.70;99.90
41310;DHT22;27057;51.438;-0.010;2022-10-31T03:32:49;12.70;99.90
41310;DHT22;27057;51.438;-0.010;2022-10-31T03:35:19;12.70;99.90
41310;DHT22;27057;51.438;-0.010;2022-10-31T03:37:48;12.80;99.90
41310;DHT22;27057;51.438;-0.010;2022-10-31T03:40:19;12.80;99.90
41310;DHT22;27057;51.438;-0.010;2022-10-31T03:42:58;12.80;99.90
41310;DHT22;27057;51.438;-0.010;2022-10-31T03:45:30;12.80;99.90
41310;DHT22;27057;51.438;-0.010;2022-10-31T03:47:59;12.80;99.90
41310;DHT22;27057;51.438;-0.010;2022-10-31T03:50:33;12.80;99.90
41310;DHT22;27057;51.438;-0.010;2022-10-31T03:53:20;12.80;99.90
41310;DHT22;27057;51.438;-0.010;2022-10-31T03:55:59;12.80;99.90
41310;DHT22;27057;51.438;-0.010;2022-10-31T03:58:38;12.80;99.90
41310;DHT22;27057;51.438;-0.010;2022-10-31T04:01:11;12.70;99.90
41310;DHT22;27057;51.438;-0.010;2022-10-31T04:03:42;12.80;99.90
41310;DHT22;27057;51.438;-0.010;2022-10-31T04:06:14;12.80;99.90
41310;DHT22;27057;51.438;-0.010;2022-10-31T04:08:48;12.80;99.90
41310;DHT22;27057;51.438;-0.010;2022-10-31T04:11:20;12.80;99.90
41310;DHT22;27057;51.438;-0.010;2022-10-31T04:14:10;12.80;99.90
41310;DHT22;27057;51.438;-0.010;2022-10-31T04:16:42;12.80;99.90
41310;DHT22;27057;51.438;-0.010;2022-10-31T04:19:12;12.80;99.90
41310;DHT22;27057;51.438;-0.010;2022-10-31T04:21:40;12.90;99.90
41310;DHT22;27057;51.438;-0.010;2022-10-31T04:24:10;12.90;99.90
41310;DHT22;27057;51.438;-0.010;2022-10-31T04:26:41;12.90;99.90
41310;DHT22;27057;51.438;-0.010;2022-10-31T04:29:09;12.90;99.90
41310;DHT22;27057;51.438;-0.010;2022-10-31T04:31:37;12.90;99.90
41310;DHT22;27057;51.438;-0.010;2022-10-31T04:34:05;12.90;99.90
41310;DHT22;27057;51.438;-0.010;2022-10-31T04:36:33;13.00;99.90
41310;DHT22;27057;51.438;-0.010;2022-10-31T04:39:00;12.90;99.90
41310;DHT22;27057;51.438;-0.010;2022-10-31T04:41:40;12.90;99.90
41310;DHT22;27057;51.438;-0.010;2022-10-31T04:44:13;12.90;99.90
41310;DHT22;27057;51.438;-0.010;2022-10-31T04:46:40;12.90;99.90
41310;DHT22;27057;51.438;-0.010;2022-10-31T04:49:09;12.90;99.90
41310;DHT22;27057;51.438;-0.010;2022-10-31T04:51:36;12.80;99.90
41310;DHT22;27057;51.438;-0.010;2022-10-31T04:54:04;12.80;99.90
41310;DHT22;27057;51.438;-0.010;2022-10-31T04:57:09;12.80;99.90
41310;DHT22;27057;51.438;-0.010;2022-10-31T04:59:37;12.70;99.90
41310;DHT22;27057;51.438;-0.010;2022-10-31T05:02:05;12.70;99.90
41310;DHT22;27057;51.438;-0.010;2022-10-31T05:04:46;12.70;99.90
41310;DHT22;27057;51.438;-0.010;2022-10-31T05:07:15;12.70;99.90
41310;DHT22;27057;51.438;-0.010;2022-10-31T05:09:43;12.60;99.90
41310;DHT22;27057;51.438;-0.010;2022-10-31T05:12:13;12.60;99.90
41310;DHT22;27057;51.438;-0.010;2022-10-31T05:14:59;12.60;99.90
41310;DHT22;27057;51.438;-0.010;2022-10-31T05:17:45;12.60;99.90
41310;DHT22;27057;51.438;-0.010;2022-10-31T05:20:31;12.60;99.90
41310;DHT22;27057;51.438;-0.010;2022-10-31T05:23:12;12.60;99.90
41310;DHT22;27057;51.438;-0.010;2022-10-31T05:25:41;12.60;99.90
41310;DHT22;27057;51.438;-0.010;2022-10-31T05:28:08;12.50;99.90
41310;DHT22;27057;51.438;-0.010;2022-10-31T05:30:36;12.50;99.90
41310;DHT22;27057;51.438;-0.010;2022-10-31T05:33:08;12.50;99.90
41310;DHT22;27057;51.438;-0.010;2022-10-31T05:35:54;12.40;99.90
41310;DHT22;27057;51.438;-0.010;2022-10-31T05:38:24;12.40;99.90
41310;DHT22;27057;51.438;-0.010;2022-10-31T05:40:55;12.40;99.90
41310;DHT22;27057;51.438;-0.010;2022-10-31T05:43:25;12.40;99.90
41310;DHT22;27057;51.438;-0.010;2022-10-31T05:45:54;12.40;99.90
41310;DHT22;27057;51.438;-0.010;2022-10-31T05:48:40;12.40;99.90
41310;DHT22;27057;51.438;-0.010;2022-10-31T05:51:26;12.40;99.90
41310;DHT22;27057;51.438;-0.010;2022-10-31T05:53:53;12.40;99.90
41310;DHT22;27057;51.438;-0.010;2022-10-31T05:56:22;12.40;99.90
41310;DHT22;27057;51.438;-0.010;2022-10-31T05:58:49;12.40;99.90
41310;DHT22;27057;51.438;-0.010;2022-10-31T06:01:17;12.30;99.90
41310;DHT22;27057;51.438;-0.010;2022-10-31T06:03:45;12.30;99.90
41310;DHT22;27057;51.438;-0.010;2022-10-31T06:06:15;12.30;99.90
41310;DHT22;27057;51.438;-0.010;2022-10-31T06:08:43;12.30;99.90
41310;DHT22;27057;51.438;-0.010;2022-10-31T06:11:17;12.20;99.90
41310;DHT22;27057;51.438;-0.010;2022-10-31T06:14:03;12.20;99.90
41310;DHT22;27057;51.438;-0.010;2022-10-31T06:16:37;12.20;99.90
41310;DHT22;27057;51.438;-0.010;2022-10-31T06:19:31;12.10;99.90
41310;DHT22;27057;51.438;-0.010;2022-10-31T06:21:59;12.10;99.90
41310;DHT22;27057;51.438;-0.010;2022-10-31T06:24:26;12.10;99.90
41310;DHT22;27057;51.438;-0.010;2022-10-31T06:26:53;12.10;99.90
41310;DHT22;27057;51.438;-0.010;2022-10-31T06:29:21;12.10;99.90
41310;DHT22;27057;51.438;-0.010;2022-10-31T06:32:03;12.10;99.90
41310;DHT22;27057;51.438;-0.010;2022-10-31T06:34:35;12.10;99.90
41310;DHT22;27057;51.438;-0.010;2022-10-31T06:37:03;12.00;99.90
41310;DHT22;27057;51.438;-0.010;2022-10-31T06:39:30;12.00;99.90
41310;DHT22;27057;51.438;-0.010;2022-10-31T06:41:58;12.00;99.90
41310;DHT22;27057;51.438;-0.010;2022-10-31T06:44:27;12.00;99.90
41310;DHT22;27057;51.438;-0.010;2022-10-31T06:46:54;12.00;99.90
41310;DHT22;27057;51.438;-0.010;2022-10-31T06:49:40;11.90;99.90
41310;DHT22;27057;51.438;-0.010;2022-10-31T06:52:13;11.90;99.90
41310;DHT22;27057;51.438;-0.010;2022-10-31T06:54:40;11.80;99.90
41310;DHT22;27057;51.438;-0.010;2022-10-31T06:57:08;11.90;99.90
41310;DHT22;27057;51.438;-0.010;2022-10-31T06:59:37;11.80;99.90
41310;DHT22;27057;51.438;-0.010;2022-10-31T07:02:07;11.80;99.90
41310;DHT22;27057;51.438;-0.010;2022-10-31T07:04:34;11.80;99.90
41310;DHT22;27057;51.438;-0.010;2022-10-31T07:07:02;11.80;99.90
41310;DHT22;27057;51.438;-0.010;2022-10-31T07:09:30;11.80;99.90
41310;DHT22;27057;51.438;-0.010;2022-10-31T07:12:01;11.80;99.90
41310;DHT22;27057;51.438;-0.010;2022-10-31T07:14:30;11.80;99.90
41310;DHT22;27057;51.438;-0.010;2022-10-31T07:16:57;11.80;99.90
41310;DHT22;27057;51.438;-0.010;2022-10-31T07:19:32;11.80;99.90
41310;DHT22;27057;51.438;-0.010;2022-10-31T07:21:59;11.90;99.90
41310;DHT22;27057;51.438;-0.010;2022-10-31T07:27:17;11.80;99.90
41310;DHT22;27057;51.438;-0.010;2022-10-31T07:29:47;11.90;99.90
41310;DHT22;27057;51.438;-0.010;2022-10-31T07:32:16;11.90;99.90
41310;DHT22;27057;51.438;-0.010;2022-10-31T07:34:51;11.90;99.90
41310;DHT22;27057;51.438;-0.010;2022-10-31T07:37:21;12.00;99.90
41310;DHT22;27057;51.438;-0.010;2022-10-31T07:39:49;12.00;99.90
41310;DHT22;27057;51.438;-0.010;2022-10-31T07:42:16;12.00;99.90
41310;DHT22;27057;51.438;-0.010;2022-10-31T07:44:45;12.00;99.90
41310;DHT22;27057;51.438;-0.010;2022-10-31T07:47:41;12.10;99.90
41310;DHT22;27057;51.438;-0.010;2022-10-31T07:50:31;12.10;99.90
41310;DHT22;27057;51.438;-0.010;2022-10-31T07:53:19;12.10;99.90
41310;DHT22;27057;51.438;-0.010;2022-10-31T08:19:10;12.50;99.90
41310;DHT22;27057;51.438;-0.010;2022-10-31T08:24:08;13.00;99.90
41310;DHT22;27057;51.438;-0.010;2022-10-31T08:26:36;12.60;99.90
41310;DHT22;27057;51.438;-0.010;2022-10-31T08:29:07;12.60;99.90
41310;DHT22;27057;51.438;-0.010;2022-10-31T08:31:36;12.70;99.90
41310;DHT22;27057;51.438;-0.010;2022-10-31T08:34:27;12.80;99.90
41310;DHT22;27057;51.438;-0.010;2022-10-31T08:37:30;12.80;99.90
41310;DHT22;27057;51.438;-0.010;2022-10-31T08:39:57;12.90;99.90
41310;DHT22;27057;51.438;-0.010;2022-10-31T08:42:25;12.90;99.90
41310;DHT22;27057;51.438;-0.010;2022-10-31T08:44:52;12.90;99.90
41310;DHT22;27057;51.438;-0.010;2022-10-31T08:47:21;13.00;99.90
41310;DHT22;27057;51.438;-0.010;2022-10-31T08:49:49;13.10;99.90
41310;DHT22;27057;51.438;-0.010;2022-10-31T09:00:13;13.30;99.90
41310;DHT22;27057;51.438;-0.010;2022-10-31T09:03:10;13.30;99.90
41310;DHT22;27057;51.438;-0.010;2022-10-31T09:05:39;13.60;99.90
41310;DHT22;27057;51.438;-0.010;2022-10-31T09:10:44;13.80;99.90
41310;DHT22;27057;51.438;-0.010;2022-10-31T09:13:19;13.70;99.90
41310;DHT22;27057;51.438;-0.010;2022-10-31T09:23:31;13.90;99.90
41310;DHT22;27057;51.438;-0.010;2022-10-31T09:26:01;14.10;99.90
41310;DHT22;27057;51.438;-0.010;2022-10-31T09:33:47;14.20;99.90
41310;DHT22;27057;51.438;-0.010;2022-10-31T09:36:33;13.90;99.90
41310;DHT22;27057;51.438;-0.010;2022-10-31T09:41:56;14.00;99.90
41310;DHT22;27057;51.438;-0.010;2022-10-31T09:47:14;14.70;99.90
41310;DHT22;27057;51.438;-0.010;2022-10-31T09:52:49;14.60;99.90
41310;DHT22;27057;51.438;-0.010;2022-10-31T09:55:31;14.90;99.90
41310;DHT22;27057;51.438;-0.010;2022-10-31T09:58:02;15.20;99.90
41310;DHT22;27057;51.438;-0.010;2022-10-31T10:05:46;15.50;99.90
41310;DHT22;27057;51.438;-0.010;2022-10-31T10:08:31;15.70;99.90
41310;DHT22;27057;51.438;-0.010;2022-10-31T10:20:25;15.90;99.90
41310;DHT22;27057;51.438;-0.010;2022-10-31T10:25:32;16.60;99.90
41310;DHT22;27057;51.438;-0.010;2022-10-31T10:36:14;16.30;99.90
41310;DHT22;27057;51.438;-0.010;2022-10-31T10:39:03;16.30;99.90
41310;DHT22;27057;51.438;-0.010;2022-10-31T10:41:32;16.30;99.90
41310;DHT22;27057;51.438;-0.010;2022-10-31T10:44:01;16.60;99.90
41310;DHT22;27057;51.438;-0.010;2022-10-31T10:46:41;16.40;99.90
41310;DHT22;27057;51.438;-0.010;2022-10-31T10:49:50;16.50;99.90
41310;DHT22;27057;51.438;-0.010;2022-10-31T10:52:40;16.50;99.90
41310;DHT22;27057;51.438;-0.010;2022-10-31T10:56:00;16.50;99.90
41310;DHT22;27057;51.438;-0.010;2022-10-31T10:58:29;16.60;99.90
41310;DHT22;27057;51.438;-0.010;2022-10-31T11:03:24;17.20;99.90
41310;DHT22;27057;51.438;-0.010;2022-10-31T11:05:57;17.40;99.90
41310;DHT22;27057;51.438;-0.010;2022-10-31T11:08:31;17.90;99.90
41310;DHT22;27057;51.438;-0.010;2022-10-31T11:11:23;18.40;99.90
41310;DHT22;27057;51.438;-0.010;2022-10-31T11:13:59;19.20;99.90
41310;DHT22;27057;51.438;-0.010;2022-10-31T11:16:29;19.00;99.90
41310;DHT22;27057;51.438;-0.010;2022-10-31T11:19:26;19.30;99.90
41310;DHT22;27057;51.438;-0.010;2022-10-31T11:21:54;19.30;99.90
41310;DHT22;27057;51.438;-0.010;2022-10-31T11:24:38;19.50;99.90
41310;DHT22;27057;51.438;-0.010;2022-10-31T11:27:21;19.70;99.90
41310;DHT22;27057;51.438;-0.010;2022-10-31T11:29:51;20.10;99.90
41310;DHT22;27057;51.438;-0.010;2022-10-31T11:32:27;20.30;99.90
41310;DHT22;27057;51.438;-0.010;2022-10-31T11:34:58;20.40;99.90
41310;DHT22;27057;51.438;-0.010;2022-10-31T11:37:29;20.90;99.90
41310;DHT22;27057;51.438;-0.010;2022-10-31T11:40:05;20.60;99.90
41310;DHT22;27057;51.438;-0.010;2022-10-31T11:42:38;20.30;99.90
41310;DHT22;27057;51.438;-0.010;2022-10-31T11:45:30;20.00;99.90
41310;DHT22;27057;51.438;-0.010;2022-10-31T11:47:59;19.60;99.90
41310;DHT22;27057;51.438;-0.010;2022-10-31T11:50:39;19.30;99.90
41310;DHT22;27057;51.438;-0.010;2022-10-31T11:53:19;19.10;99.90
41310;DHT22;27057;51.438;-0.010;2022-10-31T11:55:47;19.10;99.90
41310;DHT22;27057;51.438;-0.010;2022-10-31T11:58:26;19.20;99.90
41310;DHT22;27057;51.438;-0.010;2022-10-31T12:00:55;19.30;99.90
41310;DHT22;27057;51.438;-0.010;2022-10-31T12:06:07;19.30;99.90
41310;DHT22;27057;51.438;-0.010;2022-10-31T12:08:37;19.50;99.90
41310;DHT22;27057;51.438;-0.010;2022-10-31T12:16:37;20.80;99.90
41310;DHT22;27057;51.438;-0.010;2022-10-31T12:28:14;19.80;99.90
41310;DHT22;27057;51.438;-0.010;2022-10-31T12:56:12;21.10;99.90
41310;DHT22;27057;51.438;-0.010;2022-10-31T13:01:42;21.20;99.90
41310;DHT22;27057;51.438;-0.010;2022-10-31T13:04:17;21.10;99.90
41310;DHT22;27057;51.438;-0.010;2022-10-31T13:07:10;21.20;99.90
41310;DHT22;27057;51.438;-0.010;2022-10-31T13:09:45;21.30;99.90
41310;DHT22;27057;51.438;-0.010;2022-10-31T13:12:17;20.90;99.90
41310;DHT22;27057;51.438;-0.010;2022-10-31T13:14:53;20.90;99.90
41310;DHT22;27057;51.438;-0.010;2022-10-31T13:17:27;20.60;99.90
41310;DHT22;27057;51.438;-0.010;2022-10-31T13:22:45;19.50;99.90
41310;DHT22;27057;51.438;-0.010;2022-10-31T13:25:21;19.50;99.90
41310;DHT22;27057;51.438;-0.010;2022-10-31T13:30:44;19.10;99.90
41310;DHT22;27057;51.438;-0.010;2022-10-31T13:35:52;18.70;99.90
41310;DHT22;27057;51.438;-0.010;2022-10-31T13:41:46;18.70;99.90
41310;DHT22;27057;51.438;-0.010;2022-10-31T13:44:18;18.80;99.90
41310;DHT22;27057;51.438;-0.010;2022-10-31T13:46:47;18.80;99.90
41310;DHT22;27057;51.438;-0.010;2022-10-31T13:49:44;19.10;99.90
41310;DHT22;27057;51.438;-0.010;2022-10-31T13:54:46;19.90;99.90
41310;DHT22;27057;51.438;-0.010;2022-10-31T14:00:22;19.80;99.90
41310;DHT22;27057;51.438;-0.010;2022-10-31T14:02:56;19.60;99.90
41310;DHT22;27057;51.438;-0.010;2022-10-31T14:05:35;19.00;99.90
41310;DHT22;27057;51.438;-0.010;2022-10-31T14:08:05;18.90;99.90
41310;DHT22;27057;51.438;-0.010;2022-10-31T14:10:37;18.70;99.90
41310;DHT22;27057;51.438;-0.010;2022-10-31T14:13:35;18.50;99.90
41310;DHT22;27057;51.438;-0.010;2022-10-31T14:16:28;18.30;99.90
41310;DHT22;27057;51.438;-0.010;2022-10-31T14:19:19;18.10;99.90
41310;DHT22;27057;51.438;-0.010;2022-10-31T14:21:48;17.90;99.90
41310;DHT22;27057;51.438;-0.010;2022-10-31T14:29:30;17.50;99.90
41310;DHT22;27057;51.438;-0.010;2022-10-31T14:34:43;17.40;99.90
41310;DHT22;27057;51.438;-0.010;2022-10-31T14:40:33;17.10;99.90
41310;DHT22;27057;51.438;-0.010;2022-10-31T14:48:56;16.90;99.90
41310;DHT22;27057;51.438;-0.010;2022-10-31T14:51:40;16.80;99.90
41310;DHT22;27057;51.438;-0.010;2022-10-31T14:54:20;16.70;99.90
41310;DHT22;27057;51.438;-0.010;2022-10-31T14:56:53;16.70;99.90
41310;DHT22;27057;51.438;-0.010;2022-10-31T14:59:25;16.70;99.90
41310;DHT22;27057;51.438;-0.010;2022-10-31T15:04:37;16.70;99.90
41310;DHT22;27057;51.438;-0.010;2022-10-31T15:07:25;16.80;99.90
41310;DHT22;27057;51.438;-0.010;2022-10-31T15:10:02;16.60;99.90
41310;DHT22;27057;51.438;-0.010;2022-10-31T15:12:33;16.50;99.90
41310;DHT22;27057;51.438;-0.010;2022-10-31T15:15:12;16.50;99.90
41310;DHT22;27057;51.438;-0.010;2022-10-31T15:17:45;16.50;99.90
41310;DHT22;27057;51.438;-0.010;2022-10-31T15:20:18;16.40;99.90
41310;DHT22;27057;51.438;-0.010;2022-10-31T15:22:46;16.40;99.90
41310;DHT22;27057;51.438;-0.010;2022-10-31T15:25:19;16.40;99.90
41310;DHT22;27057;51.438;-0.010;2022-10-31T15:27:51;16.40;99.90
41310;DHT22;27057;51.438;-0.010;2022-10-31T15:30:24;16.40;99.90
41310;DHT22;27057;51.438;-0.010;2022-10-31T15:32:52;16.30;99.90
41310;DHT22;27057;51.438;-0.010;2022-10-31T15:35:29;16.30;99.90
41310;DHT22;27057;51.438;-0.010;2022-10-31T15:37:58;16.30;99.90
41310;DHT22;27057;51.438;-0.010;2022-10-31T15:40:27;16.30;99.90
41310;DHT22;27057;51.438;-0.010;2022-10-31T15:43:02;16.30;99.90
41310;DHT22;27057;51.438;-0.010;2022-10-31T15:45:31;16.20;99.90
41310;DHT22;27057;51.438;-0.010;2022-10-31T15:48:17;16.20;99.90
41310;DHT22;27057;51.438;-0.010;2022-10-31T15:51:05;16.10;99.90
41310;DHT22;27057;51.438;-0.010;2022-10-31T15:53:46;16.10;99.90
41310;DHT22;27057;51.438;-0.010;2022-10-31T15:56:28;16.00;99.90
41310;DHT22;27057;51.438;-0.010;2022-10-31T15:58:58;16.00;99.90
41310;DHT22;27057;51.438;-0.010;2022-10-31T16:01:33;15.90;99.90
41310;DHT22;27057;51.438;-0.010;2022-10-31T16:06:40;15.80;99.90
41310;DHT22;27057;51.438;-0.010;2022-10-31T16:09:23;15.80;99.90
41310;DHT22;27057;51.438;-0.010;2022-10-31T16:11:51;15.80;99.90
41310;DHT22;27057;51.438;-0.010;2022-10-31T16:14:22;15.80;99.90
41310;DHT22;27057;51.438;-0.010;2022-10-31T16:16:54;15.80;99.90
41310;DHT22;27057;51.438;-0.010;2022-10-31T16:19:23;15.80;99.90
41310;DHT22;27057;51.438;-0.010;2022-10-31T16:22:02;15.80;99.90
41310;DHT22;27057;51.438;-0.010;2022-10-31T16:24:32;15.70;99.90
41310;DHT22;27057;51.438;-0.010;2022-10-31T16:27:06;15.70;99.90
41310;DHT22;27057;51.438;-0.010;2022-10-31T16:32:01;15.70;99.90
41310;DHT22;27057;51.438;-0.010;2022-10-31T16:34:28;15.70;99.90
41310;DHT22;27057;51.438;-0.010;2022-10-31T16:36:56;15.60;99.90
41310;DHT22;27057;51.438;-0.010;2022-10-31T16:39:23;15.60;99.90
41310;DHT22;27057;51.438;-0.010;2022-10-31T16:41:54;15.60;99.90
41310;DHT22;27057;51.438;-0.010;2022-10-31T16:44:25;15.50;99.90
41310;DHT22;27057;51.438;-0.010;2022-10-31T16:47:10;15.60;99.90
41310;DHT22;27057;51.438;-0.010;2022-10-31T16:49:39;15.60;99.90
41310;DHT22;27057;51.438;-0.010;2022-10-31T16:52:07;15.60;99.90
41310;DHT22;27057;51.438;-0.010;2022-10-31T16:54:34;15.50;99.90
41310;DHT22;27057;51.438;-0.010;2022-10-31T16:57:03;15.60;99.90
41310;DHT22;27057;51.438;-0.010;2022-10-31T16:59:32;15.50;99.90
41310;DHT22;27057;51.438;-0.010;2022-10-31T17:02:02;15.50;99.90
41310;DHT22;27057;51.438;-0.010;2022-10-31T17:04:33;15.50;99.90
41310;DHT22;27057;51.438;-0.010;2022-10-31T17:07:00;15.50;99.90
41310;DHT22;27057;51.438;-0.010;2022-10-31T17:09:27;15.40;99.90
41310;DHT22;27057;51.438;-0.010;2022-10-31T17:11:55;15.40;99.90
41310;DHT22;27057;51.438;-0.010;2022-10-31T17:14:22;15.50;99.90
41310;DHT22;27057;51.438;-0.010;2022-10-31T17:16:50;15.40;99.90
41310;DHT22;27057;51.438;-0.010;2022-10-31T17:19:18;15.40;99.90
41310;DHT22;27057;51.438;-0.010;2022-10-31T17:24:14;15.40;99.90
41310;DHT22;27057;51.438;-0.010;2022-10-31T17:26:42;15.40;99.90
41310;DHT22;27057;51.438;-0.010;2022-10-31T17:29:09;15.40;99.90
41310;DHT22;27057;51.438;-0.010;2022-10-31T17:31:37;15.40;99.90
41310;DHT22;27057;51.438;-0.010;2022-10-31T17:34:05;15.30;99.90
41310;DHT22;27057;51.438;-0.010;2022-10-31T17:36:34;15.30;99.90
41310;DHT22;27057;51.438;-0.010;2022-10-31T17:39:24;15.20;99.90
41310;DHT22;27057;51.438;-0.010;2022-10-31T17:41:55;15.20;99.90
41310;DHT22;27057;51.438;-0.010;2022-10-31T17:44:25;15.10;99.90
41310;DHT22;27057;51.438;-0.010;2022-10-31T17:47:42;15.10;99.90
41310;DHT22;27057;51.438;-0.010;2022-10-31T17:50:25;15.10;99.90
41310;DHT22;27057;51.438;-0.010;2022-10-31T17:53:10;15.00;99.90
41310;DHT22;27057;51.438;-0.010;2022-10-31T17:55:40;15.00;99.90
41310;DHT22;27057;51.438;-0.010;2022-10-31T17:58:08;14.90;99.90
41310;DHT22;27057;51.438;-0.010;2022-10-31T18:00:46;14.90;99.90
41310;DHT22;27057;51.438;-0.010;2022-10-31T18:03:37;14.90;99.90
41310;DHT22;27057;51.438;-0.010;2022-10-31T18:06:05;14.90;99.90
41310;DHT22;27057;51.438;-0.010;2022-10-31T18:08:35;14.80;99.90
41310;DHT22;27057;51.438;-0.010;2022-10-31T18:11:19;14.80;99.90
41310;DHT22;27057;51.438;-0.010;2022-10-31T18:13:47;14.90;99.90
41310;DHT22;27057;51.438;-0.010;2022-10-31T18:18:51;14.90;99.90
41310;DHT22;27057;51.438;-0.010;2022-10-31T18:21:20;14.80;99.90
41310;DHT22;27057;51.438;-0.010;2022-10-31T18:23:51;14.80;99.90
41310;DHT22;27057;51.438;-0.010;2022-10-31T18:26:19;14.80;99.90
41310;DHT22;27057;51.438;-0.010;2022-10-31T18:28:46;14.80;99.90
41310;DHT22;27057;51.438;-0.010;2022-10-31T18:31:14;14.80;99.90
41310;DHT22;27057;51.438;-0.010;2022-10-31T18:33:41;14.90;99.90
41310;DHT22;27057;51.438;-0.010;2022-10-31T18:36:09;14.80;99.90
41310;DHT22;27057;51.438;-0.010;2022-10-31T18:38:40;14.90;99.90
41310;DHT22;27057;51.438;-0.010;2022-10-31T18:41:08;14.90;99.90
41310;DHT22;27057;51.438;-0.010;2022-10-31T18:43:35;14.90;99.90
41310;DHT22;27057;51.438;-0.010;2022-10-31T18:46:06;14.90;99.90
41310;DHT22;27057;51.438;-0.010;2022-10-31T18:51:08;14.90;99.90
41310;DHT22;27057;51.438;-0.010;2022-10-31T18:53:36;14.90;99.90
41310;DHT22;27057;51.438;-0.010;2022-10-31T18:56:08;14.90;99.90
41310;DHT22;27057;51.438;-0.010;2022-10-31T18:58:36;15.00;99.90
41310;DHT22;27057;51.438;-0.010;2022-10-31T19:01:08;15.20;99.90
41310;DHT22;27057;51.438;-0.010;2022-10-31T19:03:37;15.00;99.90
41310;DHT22;27057;51.438;-0.010;2022-10-31T19:06:05;15.00;99.90
41310;DHT22;27057;51.438;-0.010;2022-10-31T19:08:33;15.00;99.90
41310;DHT22;27057;51.438;-0.010;2022-10-31T19:11:10;15.10;99.90
41310;DHT22;27057;51.438;-0.010;2022-10-31T19:13:39;15.00;99.90